Terminal Aerodrome Forecast
Issued by NWS

Home | Current Version | Previous Version | Text Only | Print | Product List | Glossary Off
Versions: 1 2 3 4 5 6 7 8 9 10 11 12 13 14 15 16 17 18 19 20 21 22 23 24 25

000
FTUS43 KMPX 231300 AAA
TAFRNH
TAF AMD
KRNH 231302Z 2313/2412 16005KT 1/2SM FG OVC004
     FM231500 17005KT 3SM BR BKN005 OVC012
     FM231700 24005KT 6SM BR SCT020 OVC080
     FM232200 31007KT 4SM -RA BR OVC006
     FM240500 32013G23KT 1 1/2SM -SN BR OVC005=

USA.gov is the U.S. government's official web portal to all federal, state and local government web resources and services.